createdAt,value
2019-03-01T00:02:06.909Z,25.50
2019-03-01T00:04:38.465Z,35.13
2019-03-01T00:07:29.410Z,32.33
2019-03-01T00:10:08.398Z,32.97
2019-03-01T00:13:04.938Z,31.43
2019-03-01T00:15:41.500Z,28.53
2019-03-01T00:18:26.648Z,30.77
2019-03-01T00:21:23.661Z,28.20
2019-03-01T00:24:20.479Z,25.80
2019-03-01T00:26:54.882Z,33.37
2019-03-01T00:29:37.892Z,29.20
2019-03-01T00:32:37.984Z,34.03
2019-03-01T00:35:14.453Z,31.63
2019-03-01T00:37:53.117Z,29.13
2019-03-01T00:40:39.737Z,27.67
2019-03-01T00:43:33.596Z,24.53
2019-03-01T00:46:02.344Z,28.87
2019-03-01T00:48:31.333Z,28.47
2019-03-01T00:50:59.985Z,24.37
2019-03-01T00:53:28.436Z,30.87
2019-03-01T00:55:57.032Z,25.00
2019-03-01T00:58:25.912Z,25.40
2019-03-01T01:00:54.603Z,32.90
2019-03-01T01:03:23.388Z,27.60
2019-03-01T01:05:51.780Z,34.17
2019-03-01T01:08:20.385Z,28.60
2019-03-01T01:10:49.785Z,24.03
2019-03-01T01:13:18.645Z,30.40
2019-03-01T01:15:48.381Z,25.43
2019-03-01T01:18:17.067Z,27.43
2019-03-01T01:20:45.725Z,26.07
2019-03-01T01:23:14.610Z,25.90
2019-03-01T01:25:43.463Z,24.30
2019-03-01T01:28:12.088Z,25.47
2019-03-01T01:30:40.676Z,25.70
2019-03-01T01:33:09.153Z,23.70
2019-03-01T01:35:37.484Z,22.20
2019-03-01T01:38:05.890Z,27.83
2019-03-01T01:40:35.088Z,22.82
2019-03-01T01:43:03.537Z,26.00
2019-03-01T01:45:32.282Z,22.00
2019-03-01T01:48:01.329Z,22.70
2019-03-01T01:50:31.047Z,24.10
2019-03-01T01:52:59.560Z,24.00
2019-03-01T01:55:27.886Z,20.67
2019-03-01T01:57:56.686Z,21.47
2019-03-01T02:00:24.952Z,22.13
2019-03-01T02:02:53.750Z,19.20
2019-03-01T02:05:22.394Z,23.63
2019-03-01T02:07:51.101Z,19.23
2019-03-01T02:10:20.058Z,23.00
2019-03-01T02:12:48.908Z,23.43
2019-03-01T02:15:17.456Z,20.73
2019-03-01T02:17:46.000Z,20.27
2019-03-01T02:20:15.156Z,17.40
2019-03-01T02:22:45.633Z,24.93
2019-03-01T02:25:14.271Z,25.80
2019-03-01T02:27:43.681Z,24.67
2019-03-01T02:30:13.914Z,22.70
2019-03-01T02:32:45.833Z,23.30
2019-03-01T02:35:15.516Z,22.60
2019-03-01T02:37:43.793Z,25.23
2019-03-01T02:40:13.122Z,21.27
2019-03-01T02:42:41.776Z,26.00
2019-03-01T02:45:11.240Z,23.93
2019-03-01T02:47:40.073Z,21.80
2019-03-01T02:50:09.957Z,25.27
2019-03-01T02:52:39.402Z,28.47
2019-03-01T02:55:08.609Z,30.70
2019-03-01T02:57:37.017Z,22.10
2019-03-01T03:00:07.102Z,27.80
2019-03-01T03:02:35.617Z,24.80
2019-03-01T03:05:05.281Z,22.60
2019-03-01T03:07:43.177Z,26.47
2019-03-01T03:10:12.356Z,22.87
2019-03-01T03:12:41.184Z,26.77
2019-03-01T03:15:09.854Z,25.50
2019-03-01T03:17:38.905Z,22.90
2019-03-01T03:20:07.722Z,26.20
2019-03-01T03:22:36.582Z,27.50
2019-03-01T03:25:06.349Z,21.90
2019-03-01T03:27:35.977Z,25.83
2019-03-01T03:30:06.245Z,25.23
2019-03-01T03:32:34.609Z,28.10
2019-03-01T03:35:03.412Z,27.93
2019-03-01T03:37:32.012Z,26.60
2019-03-01T03:40:00.417Z,23.30
2019-03-01T03:42:29.140Z,25.88
2019-03-01T03:44:57.789Z,26.57
2019-03-01T03:47:26.475Z,25.90
2019-03-01T03:49:55.134Z,25.10
2019-03-01T03:52:23.844Z,25.10
2019-03-01T03:54:52.473Z,30.60
2019-03-01T03:57:20.823Z,24.20
2019-03-01T03:59:49.258Z,29.90
2019-03-01T04:02:17.853Z,26.30
2019-03-01T04:04:46.312Z,26.67
2019-03-01T04:07:15.013Z,24.43
2019-03-01T04:09:43.769Z,26.00
2019-03-01T04:12:12.753Z,23.50
2019-03-01T04:14:41.692Z,26.60
2019-03-01T04:17:10.196Z,24.83
2019-03-01T04:19:38.654Z,24.43
2019-03-01T04:22:07.497Z,23.80
2019-03-01T04:24:36.155Z,27.17
2019-03-01T04:27:04.385Z,20.13
2019-03-01T04:29:32.954Z,20.20
2019-03-01T04:32:01.560Z,26.23
2019-03-01T04:34:29.967Z,23.43
2019-03-01T04:36:58.531Z,22.47
2019-03-01T04:39:27.024Z,23.93
2019-03-01T04:41:55.674Z,19.77
2019-03-01T04:44:24.383Z,24.37
2019-03-01T04:46:53.076Z,20.63
2019-03-01T04:49:22.317Z,27.53
2019-03-01T04:51:51.057Z,24.70
2019-03-01T04:54:19.728Z,26.17
2019-03-01T04:56:48.789Z,37.33
2019-03-01T04:59:17.416Z,36.67
2019-03-01T05:01:45.742Z,48.90
2019-03-01T05:04:14.467Z,43.03
2019-03-01T05:06:43.000Z,32.30
2019-03-01T05:09:11.910Z,30.00
2019-03-01T05:11:40.903Z,22.60
2019-03-01T05:14:09.562Z,20.77
2019-03-01T05:16:38.226Z,16.43
2019-03-01T05:19:07.009Z,20.83
2019-03-01T05:21:35.892Z,22.73
2019-03-01T05:24:04.632Z,23.10
2019-03-01T05:26:33.323Z,20.27
2019-03-01T05:29:02.056Z,21.93
2019-03-01T05:31:30.685Z,22.37
2019-03-01T05:33:59.690Z,21.80
2019-03-01T05:36:28.522Z,16.97
2019-03-01T05:38:57.722Z,16.53
2019-03-01T05:41:26.669Z,18.00
2019-03-01T05:43:55.203Z,17.70
2019-03-01T05:46:23.984Z,16.33
2019-03-01T05:48:52.372Z,16.27
2019-03-01T05:51:20.644Z,20.20
2019-03-01T05:53:49.494Z,18.13
2019-03-01T05:56:18.080Z,20.80
2019-03-01T05:58:47.530Z,19.83
2019-03-01T06:01:24.085Z,18.00
2019-03-01T06:03:54.172Z,17.70
2019-03-01T06:06:29.028Z,19.97
2019-03-01T06:09:16.005Z,21.27
2019-03-01T06:11:51.913Z,17.43
2019-03-01T06:14:48.760Z,19.07
2019-03-01T06:17:45.845Z,15.37
2019-03-01T06:20:28.736Z,18.03
2019-03-01T06:23:07.603Z,16.17
2019-03-01T06:25:56.709Z,21.70
2019-03-01T06:28:57.141Z,27.87
2019-03-01T06:31:53.882Z,20.83
2019-03-01T06:34:44.837Z,28.07
2019-03-01T06:37:31.206Z,21.57
2019-03-01T06:40:29.209Z,20.17
2019-03-01T06:43:06.610Z,23.10
2019-03-01T06:46:00.684Z,20.70
2019-03-01T06:48:48.833Z,18.57
2019-03-01T06:51:29.397Z,17.07
2019-03-01T06:53:58.025Z,20.20
2019-03-01T06:56:26.686Z,15.57
2019-03-01T06:58:57.037Z,18.57
2019-03-01T07:01:35.285Z,23.60
2019-03-01T07:04:17.654Z,15.53
2019-03-01T07:06:46.410Z,23.47
2019-03-01T07:09:15.183Z,16.13
2019-03-01T07:11:44.116Z,16.07
2019-03-01T07:14:12.618Z,15.97
2019-03-01T07:16:41.241Z,18.43
2019-03-01T07:19:09.885Z,21.35
2019-03-01T07:21:38.500Z,17.43
2019-03-01T07:24:07.030Z,20.77
2019-03-01T07:26:35.729Z,13.73
2019-03-01T07:29:04.509Z,22.13
2019-03-01T07:31:33.132Z,20.63
2019-03-01T07:34:02.043Z,16.30
2019-03-01T07:36:30.800Z,12.47
2019-03-01T07:38:59.351Z,19.03
2019-03-01T07:41:27.684Z,16.43
2019-03-01T07:43:56.282Z,14.17
2019-03-01T07:46:24.825Z,13.80
2019-03-01T07:48:53.899Z,14.90
2019-03-01T07:51:22.537Z,13.20
2019-03-01T07:53:51.530Z,15.70
2019-03-01T07:56:21.152Z,12.93
2019-03-01T07:58:49.969Z,11.23
2019-03-01T08:01:18.458Z,14.37
2019-03-01T08:03:52.381Z,9.87
2019-03-01T08:06:16.949Z,15.67
2019-03-01T08:08:45.716Z,11.90
2019-03-01T08:11:14.101Z,14.70
2019-03-01T08:13:43.724Z,14.37
2019-03-01T08:16:12.009Z,12.70
2019-03-01T08:18:44.175Z,15.37
2019-03-01T08:21:11.544Z,9.93
2019-03-01T08:23:40.367Z,12.90
2019-03-01T08:26:08.956Z,14.70
2019-03-01T08:28:37.412Z,11.53
2019-03-01T08:31:06.442Z,11.17
2019-03-01T08:33:35.056Z,11.63
2019-03-01T08:36:05.743Z,16.90
2019-03-01T08:38:34.323Z,15.27
2019-03-01T08:41:03.871Z,12.37
2019-03-01T08:43:32.253Z,8.17
2019-03-01T08:46:01.241Z,7.37
2019-03-01T08:48:30.539Z,13.17
2019-03-01T08:51:00.674Z,9.63
2019-03-01T08:53:29.148Z,11.10
2019-03-01T08:55:57.791Z,10.17
2019-03-01T08:58:26.204Z,9.30
2019-03-01T09:00:59.521Z,9.73
2019-03-01T09:03:30.037Z,7.80
2019-03-01T09:05:58.777Z,12.47
2019-03-01T09:08:27.301Z,12.67
2019-03-01T09:11:14.741Z,11.53
2019-03-01T09:13:43.420Z,7.97
2019-03-01T09:16:12.832Z,9.80
2019-03-01T09:18:41.505Z,10.10
2019-03-01T09:21:12.877Z,9.87
2019-03-01T09:23:41.082Z,10.27
2019-03-01T09:26:09.913Z,12.63
2019-03-01T09:28:39.680Z,10.83
2019-03-01T09:31:08.984Z,11.33
2019-03-01T09:33:37.781Z,6.87
2019-03-01T09:36:10.537Z,12.43
2019-03-01T09:38:39.462Z,12.57
2019-03-01T09:41:09.420Z,12.60
2019-03-01T09:43:38.086Z,13.70
2019-03-01T09:46:06.939Z,10.47
2019-03-01T09:48:35.589Z,11.17
2019-03-01T09:51:03.879Z,12.97
2019-03-01T09:53:34.029Z,14.77
2019-03-01T09:56:03.211Z,8.90
2019-03-01T09:58:31.816Z,10.97
2019-03-01T10:01:02.675Z,7.70
2019-03-01T10:03:31.418Z,7.67
2019-03-01T10:06:00.418Z,12.37
2019-03-01T10:08:28.920Z,16.37
2019-03-01T10:10:57.597Z,11.63
2019-03-01T10:13:26.096Z,8.93
2019-03-01T10:15:54.496Z,8.33
2019-03-01T10:18:22.797Z,7.43
2019-03-01T10:20:52.493Z,14.07
2019-03-01T10:23:22.180Z,10.90
2019-03-01T10:25:50.758Z,8.00
2019-03-01T10:28:19.117Z,8.77
2019-03-01T10:30:47.721Z,8.40
2019-03-01T10:33:16.155Z,9.03
2019-03-01T10:35:44.668Z,6.77
2019-03-01T10:38:13.146Z,13.93
2019-03-01T10:40:41.880Z,12.53
2019-03-01T10:43:10.331Z,12.53
2019-03-01T10:45:38.657Z,7.90
2019-03-01T10:48:07.456Z,14.17
2019-03-01T10:50:36.049Z,11.13
2019-03-01T10:53:04.408Z,24.63
2019-03-01T10:55:33.117Z,22.10
2019-03-01T10:58:01.892Z,9.87
2019-03-01T11:00:31.064Z,11.67
2019-03-01T11:02:59.778Z,13.83
2019-03-01T11:05:31.272Z,8.47
2019-03-01T11:08:00.327Z,10.63
2019-03-01T11:10:29.908Z,14.20
2019-03-01T11:12:58.922Z,18.33
2019-03-01T11:15:27.685Z,18.07
2019-03-01T11:17:56.201Z,10.27
2019-03-01T11:20:24.978Z,16.83
2019-03-01T11:22:53.585Z,10.40
2019-03-01T11:25:23.416Z,10.10
2019-03-01T11:27:52.265Z,9.47
2019-03-01T11:30:21.688Z,10.47
2019-03-01T11:32:50.170Z,10.07
2019-03-01T11:35:18.884Z,13.05
2019-03-01T11:37:47.935Z,10.90
2019-03-01T11:40:17.661Z,7.47
2019-03-01T11:42:46.205Z,7.90
2019-03-01T11:45:15.053Z,10.03
2019-03-01T11:47:43.676Z,8.87
2019-03-01T11:50:13.954Z,11.07
2019-03-01T11:52:42.649Z,7.00
2019-03-01T11:55:11.851Z,7.17
2019-03-01T11:57:40.488Z,14.33
2019-03-01T12:00:10.368Z,14.07
2019-03-01T12:02:39.234Z,10.27
2019-03-01T12:05:08.695Z,11.90
2019-03-01T12:07:37.696Z,9.23
2019-03-01T12:10:09.811Z,7.27
2019-03-01T12:12:38.992Z,8.80
2019-03-01T12:15:08.197Z,8.13
2019-03-01T12:17:36.850Z,9.83
2019-03-01T12:20:06.349Z,6.93
2019-03-01T12:22:35.070Z,7.93
2019-03-01T12:25:04.672Z,11.27
2019-03-01T12:27:33.628Z,10.57
2019-03-01T12:30:02.233Z,9.13
2019-03-01T12:32:32.255Z,11.50
2019-03-01T12:35:01.377Z,6.03
2019-03-01T12:37:30.635Z,9.80
2019-03-01T12:40:00.382Z,16.30
2019-03-01T12:42:28.688Z,9.33
2019-03-01T12:44:58.732Z,8.67
2019-03-01T12:47:27.060Z,8.10
2019-03-01T12:49:56.244Z,6.90
2019-03-01T12:52:25.136Z,10.10
2019-03-01T12:54:53.969Z,7.77
2019-03-01T12:57:22.401Z,12.57
2019-03-01T12:59:50.692Z,8.53
2019-03-01T13:02:19.279Z,8.07
2019-03-01T13:04:49.956Z,6.30
2019-03-01T13:07:19.050Z,5.80
2019-03-01T13:09:47.641Z,9.47
2019-03-01T13:12:16.236Z,7.10
2019-03-01T13:14:45.130Z,6.20
2019-03-01T13:17:13.720Z,10.93
2019-03-01T13:19:42.480Z,8.67
2019-03-01T13:22:11.053Z,13.58
2019-03-01T13:24:40.624Z,9.68
2019-03-01T13:27:10.900Z,5.25
2019-03-01T13:29:39.987Z,7.28
2019-03-01T13:32:08.980Z,10.98
2019-03-01T13:34:40.573Z,8.53
2019-03-01T13:37:15.169Z,7.62
2019-03-01T13:39:39.688Z,7.30
2019-03-01T13:42:10.325Z,6.25
2019-03-01T13:44:39.852Z,4.75
2019-03-01T13:47:15.356Z,8.75
2019-03-01T13:49:44.158Z,5.50
2019-03-01T13:52:14.767Z,8.88
2019-03-01T13:54:45.507Z,7.80
2019-03-01T13:57:16.541Z,7.65
2019-03-01T13:59:45.230Z,10.32
2019-03-01T14:02:13.936Z,7.15
2019-03-01T14:04:42.729Z,8.50
2019-03-01T14:07:11.355Z,10.00
2019-03-01T14:09:41.129Z,6.78
2019-03-01T14:12:10.638Z,8.18
2019-03-01T14:14:39.584Z,8.75
2019-03-01T14:17:08.316Z,8.63
2019-03-01T14:19:38.999Z,10.30
2019-03-01T14:22:10.762Z,9.63
2019-03-01T14:24:37.793Z,7.25
2019-03-01T14:27:06.795Z,8.00
2019-03-01T14:29:35.112Z,7.70
2019-03-01T14:32:03.608Z,5.78
2019-03-01T14:34:32.160Z,8.88
2019-03-01T14:37:00.646Z,7.72
2019-03-01T14:39:30.473Z,7.40
2019-03-01T14:41:59.464Z,6.70
2019-03-01T14:44:30.640Z,6.85
2019-03-01T14:46:58.765Z,6.42
2019-03-01T14:49:27.927Z,8.53
2019-03-01T14:51:57.005Z,11.78
2019-03-01T14:54:25.764Z,8.43
2019-03-01T14:56:58.917Z,8.48
2019-03-01T14:59:34.813Z,8.08
2019-03-01T15:02:03.098Z,9.65
2019-03-01T15:04:33.816Z,16.05
2019-03-01T15:07:02.606Z,9.18
2019-03-01T15:09:31.441Z,8.35
2019-03-01T15:12:00.080Z,7.15
2019-03-01T15:14:28.721Z,12.90
2019-03-01T15:16:57.449Z,7.25
2019-03-01T15:19:25.904Z,14.60
2019-03-01T15:21:54.761Z,8.83
2019-03-01T15:24:23.019Z,10.33
2019-03-01T15:26:51.493Z,9.67
2019-03-01T15:29:19.881Z,11.80
2019-03-01T15:31:51.240Z,12.90
2019-03-01T15:34:20.431Z,12.60
2019-03-01T15:36:52.415Z,8.20
2019-03-01T15:39:20.845Z,10.87
2019-03-01T15:41:49.493Z,10.30
2019-03-01T15:44:18.359Z,11.63
2019-03-01T15:46:49.984Z,12.63
2019-03-01T15:49:17.456Z,10.60
2019-03-01T15:51:46.037Z,9.10
2019-03-01T15:54:14.799Z,13.97
2019-03-01T15:56:43.787Z,12.80
2019-03-01T15:59:12.149Z,9.43
2019-03-01T16:01:43.761Z,12.80
2019-03-01T16:04:10.938Z,14.38
2019-03-01T16:06:39.520Z,14.40
2019-03-01T16:09:13.270Z,17.97
2019-03-01T16:11:42.648Z,16.47
2019-03-01T16:14:11.261Z,11.37
2019-03-01T16:16:40.113Z,15.13
2019-03-01T16:19:11.124Z,11.93
2019-03-01T16:21:39.891Z,13.67
2019-03-01T16:24:09.028Z,12.17
2019-03-01T16:26:39.757Z,13.70
2019-03-01T16:29:08.509Z,16.07
2019-03-01T16:31:37.355Z,13.63
2019-03-01T16:34:06.020Z,18.80
2019-03-01T16:36:38.673Z,9.53
2019-03-01T16:39:09.338Z,15.73
2019-03-01T16:41:39.735Z,14.47
2019-03-01T16:44:08.636Z,10.37
2019-03-01T16:46:37.033Z,14.27
2019-03-01T16:49:05.658Z,15.03
2019-03-01T16:51:34.319Z,16.40
2019-03-01T16:54:03.495Z,12.63
2019-03-01T16:56:34.553Z,18.33
2019-03-01T16:59:03.847Z,20.53
2019-03-01T17:01:37.565Z,16.67
2019-03-01T17:04:05.868Z,18.00
2019-03-01T17:06:34.599Z,19.83
2019-03-01T17:09:04.213Z,17.47
2019-03-01T17:11:37.659Z,13.33
2019-03-01T17:14:05.824Z,17.27
2019-03-01T17:16:34.570Z,18.87
2019-03-01T17:19:03.871Z,21.67
2019-03-01T17:21:32.809Z,17.30
2019-03-01T17:24:01.029Z,24.83
2019-03-01T17:26:30.760Z,25.77
2019-03-01T17:28:59.759Z,31.07
2019-03-01T17:31:29.654Z,24.97
2019-03-01T17:33:58.002Z,28.70
2019-03-01T17:36:26.425Z,31.27
2019-03-01T17:38:55.199Z,29.33
2019-03-01T17:41:23.887Z,34.40
2019-03-01T17:43:52.708Z,35.67
2019-03-01T17:46:21.407Z,29.87
2019-03-01T17:48:50.257Z,32.40
2019-03-01T17:51:21.176Z,33.97
2019-03-01T17:53:49.806Z,31.13
2019-03-01T17:56:21.880Z,31.43
2019-03-01T17:58:50.451Z,28.33
2019-03-01T18:01:19.127Z,27.87
2019-03-01T18:03:47.482Z,25.83
2019-03-01T18:06:16.880Z,25.30
2019-03-01T18:08:46.553Z,23.93
2019-03-01T18:11:15.183Z,28.67
2019-03-01T18:13:44.229Z,28.63
2019-03-01T18:16:12.809Z,29.05
2019-03-01T18:18:42.545Z,29.53
2019-03-01T18:21:13.149Z,30.20
2019-03-01T18:23:43.832Z,34.80
2019-03-01T18:26:13.279Z,32.43
2019-03-01T18:28:43.116Z,31.37
2019-03-01T18:31:11.695Z,42.07
2019-03-01T18:33:40.253Z,38.37
2019-03-01T18:36:08.749Z,36.97
2019-03-01T18:38:37.492Z,34.43
2019-03-01T18:41:06.478Z,30.27
2019-03-01T18:43:35.473Z,43.33
2019-03-01T18:46:04.254Z,46.10
2019-03-01T18:48:33.619Z,43.33
2019-03-01T18:51:06.438Z,48.67
2019-03-01T18:53:34.514Z,48.53
2019-03-01T18:56:03.090Z,53.47
2019-03-01T18:58:32.721Z,56.00
2019-03-01T19:01:02.549Z,107.67
2019-03-01T19:03:31.013Z,78.30
2019-03-01T19:05:59.392Z,72.17
2019-03-01T19:08:28.172Z,74.33
2019-03-01T19:10:59.758Z,90.90
2019-03-01T19:13:27.348Z,47.80
2019-03-01T19:15:56.319Z,39.50
2019-03-01T19:18:25.024Z,44.87
2019-03-01T19:20:53.928Z,52.30
2019-03-01T19:23:22.479Z,44.07
2019-03-01T19:25:51.117Z,27.67
2019-03-01T19:28:19.772Z,28.50
2019-03-01T19:30:49.327Z,28.40
2019-03-01T19:33:19.018Z,33.77
2019-03-01T19:35:48.020Z,29.37
2019-03-01T19:38:16.779Z,37.70
2019-03-01T19:40:47.107Z,39.60
2019-03-01T19:43:16.835Z,26.70
2019-03-01T19:45:46.134Z,27.30
2019-03-01T19:48:15.072Z,45.60
2019-03-01T19:50:44.427Z,33.40
2019-03-01T19:53:13.727Z,33.07
2019-03-01T19:55:43.997Z,32.10
2019-03-01T19:58:13.250Z,28.97
2019-03-01T20:00:43.341Z,25.97
2019-03-01T20:03:12.194Z,26.53
2019-03-01T20:05:42.259Z,28.73
2019-03-01T20:08:11.066Z,34.97
2019-03-01T20:10:39.960Z,29.20
2019-03-01T20:13:08.397Z,36.13
2019-03-01T20:15:39.009Z,38.87
2019-03-01T20:18:09.876Z,38.53
2019-03-01T20:20:39.653Z,36.20
2019-03-01T20:23:09.326Z,21.90
2019-03-01T20:25:37.937Z,28.80
2019-03-01T20:28:06.297Z,22.83
2019-03-01T20:30:34.609Z,25.73
2019-03-01T20:33:03.149Z,27.23
2019-03-01T20:35:31.791Z,31.55
2019-03-01T20:38:04.386Z,25.80
2019-03-01T20:40:32.389Z,24.73
2019-03-01T20:43:06.363Z,27.70
2019-03-01T20:45:31.655Z,30.23
2019-03-01T20:48:01.070Z,31.53
2019-03-01T20:50:29.969Z,30.10
2019-03-01T20:52:58.994Z,26.77
2019-03-01T20:55:28.885Z,28.47
2019-03-01T20:57:59.885Z,29.87
2019-03-01T21:00:30.676Z,33.70
2019-03-01T21:02:59.496Z,28.70
2019-03-01T21:05:32.175Z,27.83
2019-03-01T21:08:01.193Z,31.83
2019-03-01T21:10:33.242Z,25.50
2019-03-01T21:13:08.724Z,23.30
2019-03-01T21:15:38.761Z,23.90
2019-03-01T21:18:07.368Z,23.90
2019-03-01T21:20:38.965Z,25.80
2019-03-01T21:23:15.103Z,25.83
2019-03-01T21:25:43.956Z,27.97
2019-03-01T21:28:12.702Z,26.13
2019-03-01T21:30:41.645Z,36.67
2019-03-01T21:33:10.264Z,32.90
2019-03-01T21:35:39.628Z,33.87
2019-03-01T21:38:10.551Z,34.60
2019-03-01T21:40:38.708Z,30.77
2019-03-01T21:43:07.825Z,39.57
2019-03-01T21:45:36.359Z,40.70
2019-03-01T21:48:04.915Z,40.30
2019-03-01T21:50:33.882Z,35.73
2019-03-01T21:53:05.491Z,27.63
2019-03-01T21:55:33.120Z,19.63
2019-03-01T21:58:06.648Z,15.00
2019-03-01T22:00:34.939Z,22.67
2019-03-01T22:03:03.615Z,17.87
2019-03-01T22:05:32.116Z,20.00
2019-03-01T22:08:00.972Z,16.63
2019-03-01T22:10:31.565Z,24.80
2019-03-01T22:13:00.429Z,24.93
2019-03-01T22:15:30.264Z,15.90
2019-03-01T22:17:58.848Z,22.73
2019-03-01T22:20:27.941Z,19.70
2019-03-01T22:22:56.564Z,19.90
2019-03-01T22:25:25.315Z,19.23
2019-03-01T22:27:53.904Z,24.00
2019-03-01T22:30:24.529Z,22.23
2019-03-01T22:32:53.120Z,19.10
2019-03-01T22:35:22.696Z,24.23
2019-03-01T22:37:51.202Z,21.93
2019-03-01T22:40:24.049Z,22.90
2019-03-01T22:42:51.151Z,31.90
2019-03-01T22:45:19.660Z,24.53
2019-03-01T22:47:48.083Z,34.90
2019-03-01T22:50:17.032Z,30.87
2019-03-01T22:52:46.613Z,35.17
2019-03-01T22:55:15.388Z,34.10
2019-03-01T22:57:44.859Z,32.87
2019-03-01T23:00:50.479Z,34.17
2019-03-01T23:03:20.581Z,36.60
2019-03-01T23:05:49.390Z,35.03
2019-03-01T23:08:18.100Z,32.87
2019-03-01T23:10:48.046Z,31.40
2019-03-01T23:13:17.135Z,36.03
2019-03-01T23:15:47.261Z,29.00
2019-03-01T23:18:15.588Z,32.10
2019-03-01T23:20:44.325Z,30.10
2019-03-01T23:23:13.318Z,31.63
2019-03-01T23:25:42.892Z,36.27
2019-03-01T23:28:12.112Z,27.70
2019-03-01T23:30:42.644Z,31.10
2019-03-01T23:33:11.048Z,23.63
2019-03-01T23:35:39.396Z,21.67
2019-03-01T23:38:07.949Z,28.37
2019-03-01T23:40:36.886Z,27.27
2019-03-01T23:43:05.569Z,27.53
2019-03-01T23:45:34.065Z,31.70
2019-03-01T23:48:02.634Z,30.70
2019-03-01T23:50:34.637Z,30.73
2019-03-01T23:53:01.711Z,28.23
2019-03-01T23:55:30.229Z,34.37
2019-03-01T23:58:05.698Z,28.73
